Time;durP1;ratioP1;P1;durP2;ratioP2;P2;SDS_P1;SDS_P2;PMS_P1;PMS_P2;Temp;Humidity;BMP_temperature;BMP_pressure;BME280_temperature;BME280_humidity;BME280_pressure;Samples;Min_cycle;Max_cycle;Signal;HPM_P1;HPM_P2
2023/12/05 00:02:23;;;;;;;16.77;11.60;;;22.80;49.10;;;;;;5073435;28;20520;-68
2023/12/05 00:04:50;;;;;;;21.25;12.45;;;22.90;49.20;;;;;;5064887;28;20119;-68
2023/12/05 00:07:19;;;;;;;19.17;12.00;;;22.90;49.10;;;;;;5062754;28;20036;-69
2023/12/05 00:09:45;;;;;;;20.80;12.40;;;22.90;49.10;;;;;;5073038;28;20056;-68
2023/12/05 00:12:11;;;;;;;20.73;12.35;;;22.90;49.10;;;;;;5054542;28;20036;-68
2023/12/05 00:14:37;;;;;;;18.35;11.88;;;22.80;48.90;;;;;;5056900;28;20060;-68
2023/12/05 00:17:03;;;;;;;17.70;11.80;;;22.80;48.90;;;;;;5058225;28;20056;-68
2023/12/05 00:19:30;;;;;;;19.20;12.43;;;22.90;49.00;;;;;;5054688;28;20032;-68
2023/12/05 00:21:56;;;;;;;19.13;12.02;;;22.80;48.80;;;;;;5058825;28;20048;-68
2023/12/05 00:24:22;;;;;;;16.55;11.20;;;22.80;48.80;;;;;;5079537;28;20028;-68
2023/12/05 00:26:48;;;;;;;21.05;11.48;;;22.80;48.80;;;;;;5097507;28;20032;-69
2023/12/05 00:29:14;;;;;;;18.15;11.98;;;22.80;48.80;;;;;;5089025;28;20392;-68
2023/12/05 00:31:40;;;;;;;19.38;12.07;;;22.80;48.70;;;;;;5063180;28;20047;-68
2023/12/05 00:34:06;;;;;;;20.60;12.77;;;22.80;48.80;;;;;;5076858;28;20024;-68
2023/12/05 00:36:32;;;;;;;19.48;12.52;;;22.60;48.70;;;;;;5073991;28;20458;-68
2023/12/05 00:38:58;;;;;;;19.10;11.77;;;22.80;48.80;;;;;;5077011;28;20040;-68
2023/12/05 00:41:27;;;;;;;19.25;12.13;;;22.80;48.80;;;;;;5068124;28;20105;-68
2023/12/05 00:43:53;;;;;;;18.27;12.02;;;22.70;48.80;;;;;;5092166;28;20062;-68
2023/12/05 00:46:21;;;;;;;17.85;12.93;;;22.80;48.70;;;;;;5081687;28;20064;-69
2023/12/05 00:48:47;;;;;;;19.83;12.30;;;22.80;48.70;;;;;;5073936;28;20033;-68
2023/12/05 00:51:13;;;;;;;19.15;11.52;;;22.70;48.60;;;;;;5056672;28;20040;-68
2023/12/05 00:53:39;;;;;;;19.25;11.75;;;22.80;48.60;;;;;;5072117;28;20097;-68
2023/12/05 00:56:12;;;;;;;17.35;11.25;;;22.80;48.50;;;;;;5086470;28;20056;-68
2023/12/05 00:58:38;;;;;;;18.42;11.68;;;22.90;48.60;;;;;;5074478;28;20036;-68
2023/12/05 01:01:04;;;;;;;19.30;12.15;;;22.90;48.50;;;;;;5083239;28;20353;-69
2023/12/05 01:03:30;;;;;;;19.67;12.38;;;22.80;48.40;;;;;;5093380;28;20039;-68
2023/12/05 01:05:56;;;;;;;20.23;11.95;;;22.80;48.30;;;;;;5087900;28;20090;-69
2023/12/05 01:08:22;;;;;;;16.15;11.35;;;22.70;48.20;;;;;;5076710;28;20037;-68
2023/12/05 01:10:48;;;;;;;17.80;12.00;;;22.70;48.20;;;;;;5074454;28;20817;-68
2023/12/05 01:13:14;;;;;;;18.88;11.38;;;22.80;48.20;;;;;;5073334;28;20513;-68
2023/12/05 01:15:40;;;;;;;17.67;11.43;;;22.80;48.20;;;;;;5065104;28;20056;-68
2023/12/05 01:18:06;;;;;;;19.33;11.90;;;22.80;48.10;;;;;;5071396;28;20033;-68
2023/12/05 01:20:33;;;;;;;19.50;11.63;;;22.80;48.10;;;;;;5071477;28;20029;-68
2023/12/05 01:22:59;;;;;;;19.60;12.25;;;22.80;48.10;;;;;;5072469;28;20036;-68
2023/12/05 01:25:25;;;;;;;19.90;12.23;;;22.80;48.10;;;;;;5064795;28;20666;-68
2023/12/05 01:27:51;;;;;;;16.70;11.75;;;22.70;48.10;;;;;;5071118;28;20036;-69
2023/12/05 01:30:18;;;;;;;18.77;11.35;;;22.70;48.10;;;;;;5069582;28;20025;-68
2023/12/05 01:32:43;;;;;;;17.35;11.10;;;22.70;48.10;;;;;;5069293;28;20032;-68
2023/12/05 01:35:10;;;;;;;19.55;12.10;;;22.70;48.10;;;;;;5072354;28;20029;-68
2023/12/05 01:37:37;;;;;;;18.10;11.15;;;22.70;48.10;;;;;;5052660;28;20513;-68
2023/12/05 01:40:08;;;;;;;18.58;11.80;;;22.80;48.00;;;;;;5053777;28;20496;-68
2023/12/05 01:42:39;;;;;;;16.13;10.88;;;22.80;48.00;;;;;;5068389;28;20045;-68
2023/12/05 01:45:08;;;;;;;17.35;11.18;;;22.80;47.90;;;;;;5053736;28;20037;-68
2023/12/05 01:47:35;;;;;;;17.25;10.60;;;22.80;47.90;;;;;;5052445;28;20174;-68
2023/12/05 01:50:04;;;;;;;16.75;11.10;;;22.80;47.80;;;;;;5052523;28;20065;-68
2023/12/05 01:52:31;;;;;;;17.60;11.23;;;22.70;47.70;;;;;;5063621;28;20428;-69
2023/12/05 01:54:57;;;;;;;15.20;10.30;;;22.80;47.70;;;;;;5069085;28;20043;-68
2023/12/05 01:57:24;;;;;;;15.88;11.05;;;22.80;47.60;;;;;;5065764;28;20111;-68
2023/12/05 01:59:52;;;;;;;17.73;10.32;;;22.90;47.70;;;;;;5065813;28;20491;-68
2023/12/05 02:02:18;;;;;;;15.30;10.65;;;22.90;47.60;;;;;;5055731;28;20059;-68
2023/12/05 02:04:45;;;;;;;14.88;9.25;;;22.80;47.50;;;;;;5056367;28;20024;-68
2023/12/05 02:07:13;;;;;;;14.88;10.00;;;22.80;47.50;;;;;;5058125;28;20037;-69
2023/12/05 02:09:39;;;;;;;16.50;10.88;;;22.80;47.50;;;;;;5053358;28;20124;-68
2023/12/05 02:12:05;;;;;;;18.05;10.20;;;22.70;47.50;;;;;;5014222;28;20060;-67
2023/12/05 02:14:32;;;;;;;16.90;10.35;;;22.70;47.50;;;;;;5071783;28;20047;-68
2023/12/05 02:17:20;;;;;;;15.23;9.25;;;22.70;47.50;;;;;;5058485;28;20029;-68
2023/12/05 02:20:14;;;;;;;16.92;10.40;;;22.60;47.40;;;;;;5052553;28;20037;-68
2023/12/05 02:22:43;;;;;;;16.55;10.48;;;22.60;47.40;;;;;;5070578;28;20039;-68
2023/12/05 02:25:33;;;;;;;19.45;10.98;;;22.80;47.50;;;;;;5059154;28;20106;-68
2023/12/05 02:28:02;;;;;;;18.38;10.50;;;22.60;47.40;;;;;;4970959;28;20090;-68
2023/12/05 02:30:28;;;;;;;19.85;11.57;;;22.70;47.50;;;;;;4955475;28;20042;-68
2023/12/05 02:32:54;;;;;;;16.02;10.75;;;22.70;47.50;;;;;;4971592;28;20114;-68
2023/12/05 02:35:20;;;;;;;17.90;10.95;;;22.60;47.30;;;;;;4954494;28;20077;-68
2023/12/05 02:38:02;;;;;;;17.83;10.45;;;22.70;47.40;;;;;;4970588;28;20165;-69
2023/12/05 02:40:46;;;;;;;16.17;10.52;;;22.70;47.40;;;;;;4973891;28;20065;-68
2023/12/05 02:43:19;;;;;;;19.58;11.43;;;22.70;47.30;;;;;;4979284;28;20054;-68
2023/12/05 02:45:50;;;;;;;16.17;10.68;;;22.80;47.20;;;;;;4981775;28;20133;-66
2023/12/05 02:48:17;;;;;;;17.38;10.07;;;22.80;47.20;;;;;;4971667;28;20467;-69
2023/12/05 02:50:45;;;;;;;15.32;9.95;;;22.70;47.10;;;;;;4958833;28;20438;-68
2023/12/05 02:53:11;;;;;;;17.38;10.75;;;22.80;47.10;;;;;;4978638;28;20053;-67
2023/12/05 02:55:38;;;;;;;19.27;10.80;;;22.80;47.00;;;;;;4985780;28;20034;-68
2023/12/05 02:58:04;;;;;;;17.10;10.52;;;22.80;46.90;;;;;;4987791;28;20480;-68
2023/12/05 03:00:30;;;;;;;17.20;9.93;;;22.70;46.90;;;;;;4971326;28;20143;-69
2023/12/05 03:02:56;;;;;;;15.38;10.40;;;22.70;46.90;;;;;;4974837;28;20149;-68
2023/12/05 03:05:22;;;;;;;16.42;10.88;;;22.70;47.00;;;;;;5022593;28;20079;-68
2023/12/05 03:07:48;;;;;;;19.35;10.90;;;22.60;46.90;;;;;;5051384;28;20029;-68
2023/12/05 03:10:14;;;;;;;17.38;10.88;;;22.60;46.80;;;;;;5051239;28;20037;-69
2023/12/05 03:12:40;;;;;;;16.20;10.43;;;22.60;46.80;;;;;;5018705;28;20044;-68
2023/12/05 03:15:07;;;;;;;19.20;9.93;;;22.50;46.90;;;;;;5071201;28;20054;-68
2023/12/05 03:17:33;;;;;;;16.67;10.82;;;22.70;46.90;;;;;;5058865;28;20025;-68
2023/12/05 03:19:59;;;;;;;14.45;10.15;;;22.60;46.80;;;;;;5058005;28;20037;-68
2023/12/05 03:22:25;;;;;;;19.95;11.20;;;22.60;46.80;;;;;;5069110;28;20033;-68
2023/12/05 03:24:51;;;;;;;18.95;10.85;;;22.60;46.90;;;;;;5069099;28;20379;-68
2023/12/05 03:27:17;;;;;;;21.85;11.68;;;22.60;46.80;;;;;;5035199;28;20045;-68
2023/12/05 03:29:43;;;;;;;17.63;10.70;;;22.60;46.80;;;;;;5063800;28;20044;-68
2023/12/05 03:32:09;;;;;;;18.08;11.63;;;22.70;46.90;;;;;;5051832;28;20060;-69
2023/12/05 03:34:35;;;;;;;21.08;10.98;;;22.60;46.80;;;;;;5050775;28;20151;-68
2023/12/05 03:37:01;;;;;;;17.08;10.70;;;22.60;46.70;;;;;;5055988;28;20036;-69
2023/12/05 03:39:27;;;;;;;18.70;11.20;;;22.80;46.70;;;;;;5063173;28;20033;-67
2023/12/05 03:41:53;;;;;;;19.80;10.88;;;22.70;46.70;;;;;;5062123;28;20057;-68
2023/12/05 03:44:19;;;;;;;16.20;10.75;;;22.70;46.60;;;;;;5033330;28;20075;-68
2023/12/05 03:46:45;;;;;;;17.75;11.32;;;22.80;46.60;;;;;;5033157;28;20052;-68
2023/12/05 03:49:11;;;;;;;18.48;11.15;;;22.70;46.50;;;;;;5052515;28;20442;-67
2023/12/05 03:51:37;;;;;;;18.55;11.25;;;22.80;46.50;;;;;;5051605;28;20055;-68
2023/12/05 03:54:03;;;;;;;16.52;10.65;;;22.80;46.50;;;;;;5050811;28;20040;-68
2023/12/05 03:56:29;;;;;;;17.48;11.10;;;22.60;46.40;;;;;;5055707;28;20033;-68
2023/12/05 03:58:55;;;;;;;14.48;9.75;;;22.60;46.40;;;;;;5070702;28;20419;-68
2023/12/05 04:01:21;;;;;;;18.00;11.27;;;22.50;46.40;;;;;;5067128;28;20041;-69
2023/12/05 04:03:47;;;;;;;15.80;11.23;;;22.50;46.40;;;;;;5052315;28;20033;-68
2023/12/05 04:06:21;;;;;;;18.35;9.98;;;22.70;46.50;;;;;;5055193;28;20119;-68
2023/12/05 04:08:48;;;;;;;17.05;10.10;;;22.50;46.40;;;;;;5050534;28;20055;-68
2023/12/05 04:11:14;;;;;;;20.40;10.85;;;22.50;46.40;;;;;;5051105;28;20028;-68
2023/12/05 04:13:40;;;;;;;16.40;10.65;;;22.60;46.40;;;;;;5032590;28;20067;-68
2023/12/05 04:16:07;;;;;;;14.98;9.63;;;22.50;46.40;;;;;;5050876;28;20057;-68
2023/12/05 04:18:33;;;;;;;18.85;10.23;;;22.50;46.40;;;;;;5071193;28;20079;-69
2023/12/05 04:20:59;;;;;;;16.73;10.45;;;22.50;46.40;;;;;;5066957;28;20033;-68
2023/12/05 04:23:26;;;;;;;15.93;10.20;;;22.50;46.50;;;;;;5054317;28;20040;-68
2023/12/05 04:25:52;;;;;;;17.45;10.93;;;22.70;46.50;;;;;;5056117;28;20039;-68
2023/12/05 04:28:18;;;;;;;15.05;9.90;;;22.60;46.50;;;;;;5054103;28;20091;-68
2023/12/05 04:30:44;;;;;;;18.67;10.90;;;22.50;46.40;;;;;;5049839;28;20056;-68
2023/12/05 04:33:10;;;;;;;16.80;10.25;;;22.60;46.40;;;;;;5037085;28;20057;-68
2023/12/05 04:35:36;;;;;;;16.45;10.45;;;22.50;46.40;;;;;;5049523;28;20164;-68
2023/12/05 04:38:02;;;;;;;18.88;10.07;;;22.60;46.40;;;;;;5000939;28;20055;-68
2023/12/05 04:40:28;;;;;;;14.13;9.40;;;22.60;46.30;;;;;;5056881;28;20025;-69
2023/12/05 04:42:54;;;;;;;14.73;9.68;;;22.60;46.20;;;;;;5060086;28;20032;-68
2023/12/05 04:45:20;;;;;;;16.63;9.65;;;22.60;46.10;;;;;;5065907;28;20059;-69
2023/12/05 04:47:46;;;;;;;20.95;10.32;;;22.60;46.10;;;;;;5056115;28;20037;-69
2023/12/05 04:50:12;;;;;;;17.00;10.10;;;22.60;46.10;;;;;;5054418;28;20037;-70
2023/12/05 04:52:38;;;;;;;16.67;10.27;;;22.60;46.10;;;;;;5063512;28;20112;-70
2023/12/05 04:55:04;;;;;;;15.45;9.43;;;22.50;46.40;;;;;;5053353;28;20107;-70
2023/12/05 04:57:31;;;;;;;14.40;9.55;;;22.50;46.80;;;;;;5065853;28;20096;-69
2023/12/05 04:59:57;;;;;;;14.75;10.70;;;22.50;47.10;;;;;;5053167;28;20119;-69
2023/12/05 05:02:23;;;;;;;14.38;9.30;;;22.60;47.30;;;;;;5059517;28;20068;-70
2023/12/05 05:04:49;;;;;;;18.65;10.80;;;22.50;47.60;;;;;;5056637;28;20033;-70
2023/12/05 05:07:15;;;;;;;15.45;10.45;;;22.60;48.00;;;;;;5038377;28;20083;-69
2023/12/05 05:09:41;;;;;;;17.83;10.18;;;22.50;48.10;;;;;;5056397;28;20044;-69
2023/12/05 05:12:11;;;;;;;15.43;9.82;;;22.50;48.40;;;;;;5072912;28;20035;-69
2023/12/05 05:14:37;;;;;;;15.45;9.15;;;22.60;48.50;;;;;;5072407;28;20071;-70
2023/12/05 05:17:04;;;;;;;14.88;9.10;;;22.60;48.50;;;;;;5060233;28;20068;-68
2023/12/05 05:19:31;;;;;;;11.40;8.68;;;22.60;48.60;;;;;;5065729;28;20135;-69
2023/12/05 05:21:58;;;;;;;18.75;10.63;;;22.60;48.70;;;;;;5052469;28;20028;-68
2023/12/05 05:24:24;;;;;;;16.48;10.38;;;22.60;48.60;;;;;;5062963;28;20553;-68
2023/12/05 05:26:50;;;;;;;16.65;10.50;;;22.60;48.60;;;;;;5071414;28;20044;-67
2023/12/05 05:29:16;;;;;;;14.30;9.68;;;22.70;48.60;;;;;;5072960;28;20032;-68
2023/12/05 05:31:42;;;;;;;16.15;9.90;;;22.60;48.40;;;;;;5058705;28;20051;-68
2023/12/05 05:34:08;;;;;;;16.23;9.98;;;22.60;48.20;;;;;;5069458;28;20020;-68
2023/12/05 05:36:34;;;;;;;16.98;9.85;;;22.70;48.20;;;;;;5072474;28;20484;-68
2023/12/05 05:39:00;;;;;;;15.38;10.10;;;22.60;48.10;;;;;;5020585;28;20044;-68
2023/12/05 05:41:27;;;;;;;19.45;11.45;;;22.60;48.10;;;;;;5071863;28;20116;-69
2023/12/05 05:43:53;;;;;;;14.75;9.77;;;22.50;48.10;;;;;;5072470;28;20115;-68
2023/12/05 05:46:19;;;;;;;15.98;10.30;;;22.60;48.10;;;;;;5070643;28;20068;-69
2023/12/05 05:48:45;;;;;;;18.05;11.43;;;22.60;48.10;;;;;;5072590;28;20047;-68
2023/12/05 05:51:11;;;;;;;18.95;11.13;;;22.50;48.00;;;;;;5070682;28;20024;-69
2023/12/05 05:53:37;;;;;;;14.25;10.00;;;22.60;48.00;;;;;;5072296;28;20414;-69
2023/12/05 05:56:03;;;;;;;12.00;9.02;;;22.50;48.00;;;;;;5072171;28;20036;-68
2023/12/05 05:58:29;;;;;;;16.20;9.70;;;22.50;48.00;;;;;;5072498;28;20098;-68
2023/12/05 06:00:55;;;;;;;15.23;9.65;;;22.50;48.00;;;;;;5070333;28;20119;-68
2023/12/05 06:03:22;;;;;;;14.07;9.75;;;22.50;48.00;;;;;;5072102;28;20033;-69
2023/12/05 06:05:48;;;;;;;15.82;9.88;;;22.60;48.00;;;;;;5071973;28;20036;-68
2023/12/05 06:08:15;;;;;;;13.93;8.82;;;22.50;48.00;;;;;;5072193;28;20043;-68
2023/12/05 06:10:42;;;;;;;16.50;10.10;;;22.60;47.90;;;;;;5065668;28;20044;-68
2023/12/05 06:13:08;;;;;;;13.90;9.25;;;22.70;47.90;;;;;;5034130;28;20037;-68
2023/12/05 06:15:33;;;;;;;14.45;10.00;;;22.60;47.70;;;;;;5053502;28;20048;-67
2023/12/05 06:17:59;;;;;;;15.75;10.13;;;22.70;47.80;;;;;;5071868;28;20072;-69
2023/12/05 06:20:26;;;;;;;17.15;9.60;;;22.60;47.70;;;;;;5067936;28;20037;-69
2023/12/05 06:22:52;;;;;;;15.48;9.63;;;22.60;47.70;;;;;;5051712;28;20086;-69
2023/12/05 06:25:18;;;;;;;15.48;8.95;;;22.60;47.60;;;;;;5051704;28;20060;-67
2023/12/05 06:27:46;;;;;;;15.35;10.32;;;22.60;47.50;;;;;;5051805;28;20041;-68
2023/12/05 06:30:12;;;;;;;25.58;13.30;;;22.50;47.50;;;;;;5052658;28;20393;-68
2023/12/05 06:32:38;;;;;;;17.08;10.50;;;22.50;47.50;;;;;;5051445;28;20119;-68
2023/12/05 06:35:04;;;;;;;16.60;10.00;;;22.60;47.40;;;;;;5051544;28;20120;-68
2023/12/05 06:37:30;;;;;;;17.48;10.13;;;22.50;47.40;;;;;;5051354;28;20551;-69
2023/12/05 06:39:57;;;;;;;14.38;9.45;;;22.50;47.40;;;;;;5050896;28;20116;-69
2023/12/05 06:42:23;;;;;;;15.55;9.18;;;22.60;47.40;;;;;;5052374;28;20029;-67
2023/12/05 06:44:49;;;;;;;14.65;8.32;;;22.60;47.40;;;;;;5000093;28;20048;-68
2023/12/05 06:47:15;;;;;;;15.27;8.90;;;22.50;47.40;;;;;;5051834;28;20044;-67
2023/12/05 06:49:44;;;;;;;14.60;8.63;;;22.40;47.30;;;;;;5034382;28;20036;-68
2023/12/05 06:52:11;;;;;;;12.13;8.05;;;22.50;47.40;;;;;;5051181;28;20078;-68
2023/12/05 06:54:38;;;;;;;11.15;7.93;;;22.50;47.40;;;;;;5008871;28;20494;-68
2023/12/05 06:57:04;;;;;;;12.05;8.07;;;22.40;47.20;;;;;;5009163;28;20124;-69
2023/12/05 06:59:30;;;;;;;14.73;7.45;;;22.40;47.30;;;;;;5014371;28;20111;-69
2023/12/05 07:01:56;;;;;;;13.25;9.00;;;22.50;47.40;;;;;;5017800;28;20394;-68
2023/12/05 07:04:22;;;;;;;14.00;8.73;;;22.50;47.30;;;;;;5009101;28;20064;-68
2023/12/05 07:06:48;;;;;;;12.00;8.30;;;22.50;47.30;;;;;;5011093;28;20060;-68
2023/12/05 07:09:14;;;;;;;11.57;8.00;;;22.50;47.30;;;;;;5008875;28;20045;-69
2023/12/05 07:11:40;;;;;;;15.40;8.23;;;22.70;46.90;;;;;;5008210;28;20049;-70
2023/12/05 07:14:08;;;;;;;13.02;8.38;;;22.60;46.70;;;;;;5015436;28;20044;-70
2023/12/05 07:16:36;;;;;;;10.88;6.72;;;22.50;46.90;;;;;;5042704;28;20029;-68
2023/12/05 07:19:02;;;;;;;9.88;6.47;;;22.50;46.90;;;;;;5052063;28;20086;-68
2023/12/05 07:21:28;;;;;;;7.53;5.05;;;22.50;47.00;;;;;;5048184;28;20115;-68
2023/12/05 07:23:54;;;;;;;6.00;4.35;;;22.70;47.30;;;;;;5048553;28;20086;-68
2023/12/05 07:26:20;;;;;;;4.82;3.25;;;22.60;47.80;;;;;;5076137;28;20517;-67
2023/12/05 07:28:46;;;;;;;13.23;7.00;;;22.60;48.10;;;;;;5091314;28;20032;-67
2023/12/05 07:31:12;;;;;;;8.00;4.90;;;22.70;48.20;;;;;;5089501;28;20111;-68
2023/12/05 07:33:38;;;;;;;9.98;5.28;;;22.60;48.00;;;;;;5070282;28;20103;-68
2023/12/05 07:36:05;;;;;;;11.68;8.13;;;22.80;47.80;;;;;;5051613;28;20036;-69
2023/12/05 07:38:32;;;;;;;4.43;3.40;;;22.60;47.80;;;;;;5090668;28;20067;-68
2023/12/05 07:40:58;;;;;;;4.57;3.10;;;22.60;48.10;;;;;;5082845;28;20060;-69
2023/12/05 07:43:24;;;;;;;9.48;6.10;;;22.70;48.50;;;;;;5071088;28;20037;-69
2023/12/05 07:45:50;;;;;;;4.78;2.83;;;22.60;49.60;;;;;;5088535;28;20046;-68
2023/12/05 07:48:16;;;;;;;6.45;3.83;;;22.70;49.80;;;;;;5088863;28;20040;-68
2023/12/05 07:50:43;;;;;;;6.57;3.50;;;22.80;49.80;;;;;;5088702;28;20110;-68
2023/12/05 07:53:09;;;;;;;7.40;2.88;;;22.70;49.60;;;;;;5071798;28;20052;-68
2023/12/05 07:55:35;;;;;;;15.00;8.90;;;22.80;49.40;;;;;;5088035;28;20491;-67
2023/12/05 07:58:01;;;;;;;15.35;9.13;;;22.80;48.50;;;;;;5088789;28;20039;-67
2023/12/05 08:00:28;;;;;;;14.90;8.77;;;22.80;47.70;;;;;;5071779;28;20040;-67
2023/12/05 08:02:54;;;;;;;16.73;9.18;;;22.80;47.40;;;;;;5073934;28;20074;-67
2023/12/05 08:05:20;;;;;;;15.32;9.18;;;22.80;47.50;;;;;;5087507;28;20036;-67
2023/12/05 08:07:46;;;;;;;19.38;9.18;;;22.80;47.70;;;;;;5090335;28;20547;-67
2023/12/05 08:10:12;;;;;;;16.60;9.52;;;22.70;47.80;;;;;;5091974;28;20036;-67
2023/12/05 08:12:39;;;;;;;13.55;9.20;;;22.80;47.90;;;;;;5075107;28;20392;-67
2023/12/05 08:15:05;;;;;;;18.25;9.90;;;22.80;48.10;;;;;;5091826;28;20083;-68
2023/12/05 08:17:31;;;;;;;12.68;8.32;;;22.80;48.10;;;;;;5090014;28;20127;-67
2023/12/05 08:19:57;;;;;;;9.80;6.82;;;22.80;48.20;;;;;;5051240;28;20053;-67
2023/12/05 08:22:25;;;;;;;11.68;7.05;;;22.70;48.30;;;;;;5066443;28;20165;-67
2023/12/05 08:24:51;;;;;;;11.32;6.90;;;22.80;48.30;;;;;;5070982;28;20531;-67
2023/12/05 08:27:17;;;;;;;10.65;6.70;;;22.80;48.30;;;;;;5062710;28;20079;-66
2023/12/05 08:29:43;;;;;;;12.55;6.97;;;22.80;48.20;;;;;;5038082;28;20049;-67
2023/12/05 08:32:10;;;;;;;13.65;7.65;;;22.80;48.30;;;;;;5019560;28;20055;-67
2023/12/05 08:34:36;;;;;;;10.73;7.70;;;22.80;48.30;;;;;;5071301;28;20086;-68
2023/12/05 08:37:02;;;;;;;12.65;6.78;;;22.70;48.30;;;;;;5058172;28;20041;-67
2023/12/05 08:39:28;;;;;;;16.02;9.15;;;22.70;48.40;;;;;;5067708;28;20041;-67
2023/12/05 08:41:55;;;;;;;11.07;6.80;;;22.70;48.40;;;;;;5071258;28;20036;-67
2023/12/05 08:44:21;;;;;;;7.72;5.43;;;22.50;48.40;;;;;;5071001;28;20054;-67
2023/12/05 08:46:47;;;;;;;12.80;6.90;;;22.60;48.50;;;;;;5065333;28;20467;-67
2023/12/05 08:49:13;;;;;;;11.82;7.72;;;22.60;48.50;;;;;;5061211;28;20036;-67
2023/12/05 08:51:39;;;;;;;14.55;7.20;;;22.60;48.50;;;;;;5089236;28;20108;-67
2023/12/05 08:54:05;;;;;;;10.30;6.43;;;22.60;48.50;;;;;;5093530;28;20479;-67
2023/12/05 08:56:32;;;;;;;9.98;6.95;;;22.60;48.60;;;;;;5091831;28;20198;-67
2023/12/05 08:58:58;;;;;;;7.38;5.18;;;22.60;48.50;;;;;;5093702;28;20084;-67
2023/12/05 09:01:25;;;;;;;10.00;6.35;;;22.50;48.60;;;;;;5088660;28;20040;-67
2023/12/05 09:03:51;;;;;;;11.13;6.72;;;22.70;48.70;;;;;;5072697;28;20032;-67
2023/12/05 09:06:17;;;;;;;8.25;5.82;;;22.50;48.60;;;;;;5073126;28;20040;-67
2023/12/05 09:08:44;;;;;;;8.68;4.38;;;22.50;48.60;;;;;;5073249;28;20434;-69
2023/12/05 09:11:12;;;;;;;8.88;5.47;;;22.50;48.80;;;;;;5073297;28;20063;-68
2023/12/05 09:13:38;;;;;;;8.32;5.53;;;22.50;48.50;;;;;;5071003;28;20556;-67
2023/12/05 09:16:05;;;;;;;9.02;6.22;;;22.40;48.60;;;;;;5057172;28;20082;-67
2023/12/05 09:18:31;;;;;;;11.98;5.70;;;22.40;48.80;;;;;;5091509;28;20082;-67
2023/12/05 09:20:57;;;;;;;9.70;5.45;;;22.40;48.90;;;;;;5091762;28;20465;-67
2023/12/05 09:23:24;;;;;;;5.95;4.45;;;22.40;49.00;;;;;;5077758;28;20032;-67
2023/12/05 09:25:50;;;;;;;7.65;5.18;;;22.40;49.00;;;;;;5081104;28;20054;-67
2023/12/05 09:28:16;;;;;;;6.88;4.53;;;22.40;49.00;;;;;;5092859;28;20089;-67
2023/12/05 09:30:42;;;;;;;8.38;5.45;;;22.50;49.10;;;;;;5093169;28;20472;-67
2023/12/05 09:33:08;;;;;;;9.68;5.75;;;22.50;49.10;;;;;;5080244;28;20488;-67
2023/12/05 09:35:34;;;;;;;10.98;5.80;;;22.50;49.10;;;;;;5072712;28;20028;-67
2023/12/05 09:38:00;;;;;;;9.48;4.95;;;22.60;49.10;;;;;;5074555;28;20499;-67
2023/12/05 09:40:27;;;;;;;8.10;5.22;;;22.60;49.10;;;;;;5072303;28;20120;-66
2023/12/05 09:42:56;;;;;;;9.25;5.28;;;22.40;49.00;;;;;;5081265;28;20085;-67
2023/12/05 09:45:24;;;;;;;5.38;3.80;;;22.70;49.10;;;;;;5092750;28;20047;-67
2023/12/05 09:47:52;;;;;;;8.95;5.13;;;22.60;49.00;;;;;;5090865;28;20081;-65
2023/12/05 09:50:20;;;;;;;7.82;5.03;;;22.60;49.00;;;;;;5091152;28;20081;-67
2023/12/05 09:52:46;;;;;;;9.20;4.95;;;22.60;48.90;;;;;;5092536;28;20111;-67
2023/12/05 09:55:12;;;;;;;7.22;4.95;;;22.60;48.90;;;;;;5093059;28;20097;-67
2023/12/05 09:57:39;;;;;;;6.95;5.00;;;22.60;48.90;;;;;;5092725;28;20059;-67
2023/12/05 10:00:06;;;;;;;12.40;5.60;;;22.80;48.90;;;;;;5084793;28;20112;-67
2023/12/05 10:02:40;;;;;;;7.40;4.45;;;22.60;48.80;;;;;;5075633;28;20037;-67
2023/12/05 10:05:12;;;;;;;7.80;4.70;;;22.70;48.90;;;;;;5092413;28;20032;-67
2023/12/05 10:07:39;;;;;;;7.55;5.07;;;22.80;48.80;;;;;;5092157;28;20555;-68
2023/12/05 10:10:06;;;;;;;6.95;5.22;;;22.70;48.80;;;;;;5092012;28;20071;-67
2023/12/05 10:12:32;;;;;;;8.55;4.70;;;22.60;48.70;;;;;;5090614;28;20474;-67
2023/12/05 10:14:58;;;;;;;7.95;4.72;;;22.90;48.90;;;;;;5064055;28;20075;-67
2023/12/05 10:17:26;;;;;;;7.20;4.93;;;22.80;48.80;;;;;;5052823;28;20037;-67
2023/12/05 10:19:52;;;;;;;8.88;5.47;;;22.80;48.70;;;;;;5052001;28;20028;-67
2023/12/05 10:22:18;;;;;;;10.50;5.38;;;22.80;48.60;;;;;;5051825;28;20036;-67
2023/12/05 10:24:45;;;;;;;7.40;4.88;;;22.80;48.60;;;;;;5070529;28;20082;-67
2023/12/05 10:27:12;;;;;;;9.43;4.85;;;22.80;48.60;;;;;;5071605;28;20052;-67
2023/12/05 10:29:42;;;;;;;6.63;4.53;;;22.70;48.60;;;;;;5071479;28;20082;-67
2023/12/05 10:32:11;;;;;;;4.43;3.78;;;22.80;48.60;;;;;;5063211;28;20042;-67
2023/12/05 10:34:51;;;;;;;52.60;9.90;;;22.80;49.40;;;;;;5056361;28;20039;-66
2023/12/05 10:37:21;;;;;;;5.85;3.65;;;23.00;48.70;;;;;;5053530;28;20086;-66
2023/12/05 10:39:52;;;;;;;5.75;4.70;;;23.20;53.90;;;;;;5058064;28;20405;-66
2023/12/05 10:42:19;;;;;;;7.00;4.55;;;23.40;51.00;;;;;;5051367;28;20033;-66
2023/12/05 10:44:46;;;;;;;7.22;4.70;;;23.30;47.50;;;;;;5037612;28;20139;-66
2023/12/05 10:47:13;;;;;;;10.27;5.70;;;23.40;48.10;;;;;;5052587;28;20044;-66
2023/12/05 10:49:43;;;;;;;9.02;6.10;;;23.40;45.70;;;;;;5071234;28;20028;-67
2023/12/05 10:52:11;;;;;;;421.02;375.05;;;23.40;44.40;;;;;;5033369;28;20400;-66
2023/12/05 10:54:39;;;;;;;38.55;34.55;;;23.50;42.50;;;;;;5051256;28;20037;-67
2023/12/05 10:57:09;;;;;;;19.48;14.15;;;23.70;40.90;;;;;;5055445;28;20035;-67
2023/12/05 10:59:37;;;;;;;20.45;13.93;;;23.90;39.90;;;;;;5061312;28;20037;-71
2023/12/05 11:02:14;;;;;;;13.13;10.50;;;24.10;43.50;;;;;;5053091;28;20044;-65
2023/12/05 11:04:41;;;;;;;13.95;7.20;;;24.20;40.30;;;;;;5053437;28;20021;-67
2023/12/05 11:07:09;;;;;;;9.15;5.95;;;24.10;42.20;;;;;;5053468;28;20119;-67
2023/12/05 11:09:35;;;;;;;10.57;6.22;;;24.10;42.20;;;;;;5004896;28;20051;-67
2023/12/05 11:12:08;;;;;;;8.88;5.63;;;24.20;42.70;;;;;;5068077;28;20021;-67
2023/12/05 11:14:40;;;;;;;10.30;5.78;;;24.20;43.20;;;;;;5052644;28;20056;-67
2023/12/05 11:17:11;;;;;;;9.70;5.35;;;24.20;43.50;;;;;;5053836;28;20120;-67
2023/12/05 11:20:04;;;;;;;10.30;6.50;;;24.00;43.50;;;;;;5070363;28;20094;-66
2023/12/05 11:22:36;;;;;;;13.27;5.60;;;24.10;43.80;;;;;;5066114;28;20416;-66
2023/12/05 11:25:09;;;;;;;7.80;5.50;;;24.10;44.00;;;;;;5052754;28;20294;-66
2023/12/05 11:28:13;;;;;;;9.35;7.35;;;24.20;44.10;;;;;;5052781;28;20047;-66
2023/12/05 11:31:08;;;;;;;18.80;7.63;;;24.10;40.10;;;;;;5063396;28;20411;-68
2023/12/05 11:33:46;;;;;;;13.50;6.93;;;24.00;38.40;;;;;;5067934;28;20479;-67
2023/12/05 11:36:27;;;;;;;8.23;6.20;;;24.00;38.70;;;;;;5069198;28;20036;-68
2023/12/05 11:38:55;;;;;;;13.02;6.43;;;24.00;39.10;;;;;;5048160;28;20093;-67
2023/12/05 11:41:21;;;;;;;9.75;7.10;;;24.00;38.90;;;;;;5067345;28;20494;-68
2023/12/05 11:44:11;;;;;;;9.15;6.88;;;23.90;39.60;;;;;;5070794;28;20114;-68
2023/12/05 11:46:41;;;;;;;10.35;6.60;;;24.00;40.10;;;;;;5058380;28;20488;-69
2023/12/05 11:49:07;;;;;;;9.48;6.50;;;24.00;48.10;;;;;;5053011;28;20116;-68
2023/12/05 11:51:35;;;;;;;10.43;6.78;;;24.10;41.40;;;;;;5055103;28;20036;-67
2023/12/05 11:54:10;;;;;;;8.43;6.38;;;24.10;41.70;;;;;;5052890;28;20033;-67
2023/12/05 11:56:36;;;;;;;8.68;6.57;;;24.20;35.60;;;;;;5050972;28;20041;-67
2023/12/05 11:59:12;;;;;;;11.52;5.93;;;24.00;34.50;;;;;;5051769;28;20098;-68
2023/12/05 12:01:38;;;;;;;8.63;5.70;;;24.00;33.20;;;;;;5063204;28;20047;-67
2023/12/05 12:04:18;;;;;;;9.80;5.57;;;23.90;38.00;;;;;;5068929;28;20033;-67
2023/12/05 12:06:46;;;;;;;8.27;5.78;;;23.90;36.20;;;;;;5070232;28;20373;-67
2023/12/05 12:09:12;;;;;;;7.95;5.78;;;24.00;40.90;;;;;;5066712;28;20033;-67
2023/12/05 12:11:39;;;;;;;7.97;6.55;;;24.00;42.10;;;;;;5051292;28;20064;-66
2023/12/05 12:14:31;;;;;;;7.22;5.43;;;24.00;40.70;;;;;;5052438;28;20028;-68
2023/12/05 12:16:59;;;;;;;14.77;6.13;;;24.00;44.00;;;;;;4950135;29;20090;-68
2023/12/05 12:19:25;;;;;;;16.23;5.78;;;24.20;43.10;;;;;;4950140;29;20533;-68
2023/12/05 12:21:52;;;;;;;9.57;5.55;;;24.20;43.70;;;;;;4956582;28;20050;-67
2023/12/05 12:24:23;;;;;;;6.63;5.40;;;24.30;44.60;;;;;;4944943;28;20027;-67
2023/12/05 12:26:56;;;;;;;9.23;5.45;;;24.50;45.20;;;;;;4953580;28;20035;-68
2023/12/05 12:29:24;;;;;;;5.53;3.72;;;24.30;43.70;;;;;;4929132;29;20047;-68
2023/12/05 12:31:52;;;;;;;7.43;3.67;;;24.50;43.00;;;;;;4921090;29;20051;-68
2023/12/05 12:34:26;;;;;;;7.70;4.28;;;24.50;42.80;;;;;;4912645;29;20048;-68
2023/12/05 12:36:53;;;;;;;7.32;4.07;;;24.40;42.50;;;;;;4911689;29;20123;-68
2023/12/05 12:39:20;;;;;;;5.65;3.45;;;24.70;42.90;;;;;;4916321;29;20051;-68